Arnegard, ND (58835)

3:25 AM CST on November 24, 2014 (GMT -0600)
Bison pasture GRASS | Change Station
CLOSE
Current Station
Personal Weather Station
Location: Alexander, ND
Elevation: 2260 ft
Nearby Weather Stations

Elev 2260 ft 47.87 °N, 103.62 °W | Updated 12 minutes ago

Clear
Clear
10.1 °F
Feels Like -3 °F
N
9.0
Wind Variable Wind from WNW

Today
High -- | Low -- °F
--% Chance of Precip.
Yesterday
High -- | Low -- °F
Precip. -- in
8:12 AM 5:07 PM
Waxing Crescent, 4% visible
Pressure 29.96 in
Visibility 10.0 miles
Clouds Clear
Windchill -3 °F
Dew Point 8 °F
Humidity 89%
Rainfall 0.00 in
Snow Depth Not available.
UV 0 out of 12
Pollen .10 out of 12
Air Quality Not available.
Flu Activity Not available.
METAR KISN 240852Z AUTO 29005KT 10SM CLR M14/M16 A2984 RMK AO2 SLP146 T11391161 53006

More Conditions Fewer Conditions

Pressure 29.96 in
Visibility 10.0 miles
Clouds Clear
Windchill -3 °F
Dew Point 8 °F
Humidity 89%
Rainfall 0.00 in
Snow Depth Not available.
UV 0 out of 12
Pollen .10 out of 12
Air Quality Not available.
Flu Activity Not available.
METAR KISN 240852Z AUTO 29005KT 10SM CLR M14/M16 A2984 RMK AO2 SLP146 T11391161 53006

More Conditions Fewer Conditions

10-Day Weather Forecast

Almanac

Astronomy

Nov. 24, 2014 Rise Set
Actual Time
Civil Twilight
Nautical Twilight
Astronomical Twilight
Moon
Length of Visible Light
Length of Day
Tomorrow will be .
, % of the Moon is Illuminated

Today's Extremes

State Highs State Lows

Community

WunderPhotos

Upload Photos

1,773,294 photos uploaded!

WunderBlogs® & News

Nearby

Air Quality

  Air Quality AQ Index Pollutant
Not available.

Snow Depth

Station Depth Elevation

Earthquake Activity

City Distance Mag. Time & Date
Minimum magnitude displayed is 2.5.

Coastal Water Temperatures

Place Temperature

Nearby Weather Stations